Flight Track Log - Related Links

Times and Time Zones

All times are in EDT time to prevent confusion due to time zone crossing. See the N957AN flight status page for this flight to view local times or setup timezone preferences in your user account.

Time Position Orientation Groundspeed Altitude Reporting Facility
EDT Latitude Longitude Course Direction KTS MPH feet Rate Location/Type
Sat 06:10:34 AM 39.8444 -75.3006 180° South 185 213 1,500  Level FAA TRACON SMA TRACON (SMA)
Sat 06:10:53 AM 39.8294 -75.3136 214° Southwest 204 235 1,700 1,050 Climbing FAA TRACON SMA TRACON (SMA)
Sat 06:11:14 AM 39.8083 -75.3294 210° Southwest 226 260 2,200 1,650 Climbing FAA TRACON SMA TRACON (SMA)
Sat 06:11:33 AM 39.7892 -75.3450 212° Southwest 261 300 2,800 1,950 Climbing FAA TRACON SMA TRACON (SMA)
Sat 06:11:54 AM 39.7694 -75.3594 209° Southwest 263 303 3,500 2,488 Climbing FAA TRACON SMA TRACON (SMA)
Sat 06:12:00 AM 39.5590 -75.3068 187° South  Level FlightAware Approximate
Sat 06:12:14 AM 39.7419 -75.3697 196° South 277 319 4,500  Level FAA TRACON SMA TRACON (SMA)
Sat 06:12:34 AM 39.7178 -75.3697 180° South 283 326 5,400 2,700 Climbing FAA TRACON SMA TRACON (SMA)
Sat 06:12:54 AM 39.6936 -75.3692 179° South 281 323 6,300 3,846 Climbing FAA TRACON SMA TRACON (SMA)
Sat 06:13:00 AM 39.4535 -75.3322 194° South  Level FlightAware Approximate
Sat 06:13:13 AM 39.6658 -75.3692 180° South 264 304 7,900  Level FAA TRACON SMA TRACON (SMA)
Sat 06:13:34 AM 39.6442 -75.3700 182° South 255 293 8,800 2,250 Climbing FAA TRACON SMA TRACON (SMA)
Sat 06:13:53 AM 39.6222 -75.3711 182° South 254 292 9,400 2,250 Climbing FAA TRACON SMA TRACON (SMA)
Sat 06:14:00 AM 39.3464 -75.3430 185° South  Level FlightAware Approximate
Sat 06:14:14 AM 39.5933 -75.3717 181° South 267 307 10,300  Level FAA TRACON SMA TRACON (SMA)
Sat 06:14:34 AM 39.5694 -75.3725 182° South 279 321 10,700 1,024 Climbing FAA TRACON SMA TRACON (SMA)
Sat 06:14:55 AM 39.5425 -75.3731 181° South 314 361 11,000 1,317 Climbing FAA TRACON SMA TRACON (SMA)
Sat 06:15:00 AM 39.2415 -75.3667 180° South  Level FlightAware Approximate
Sat 06:15:15 AM 39.5072 -75.3742 181° South 332 382 11,600  Level FAA TRACON SMA TRACON (SMA)
Sat 06:15:34 AM 39.4794 -75.3733 179° South 331 381 12,300 2,462 Climbing FAA TRACON SMA TRACON (SMA)
Sat 06:15:54 AM 39.4497 -75.3758 184° South 338 389 13,200 2,769 Climbing FAA TRACON SMA TRACON (SMA)
Sat 06:16:13 AM 39.4122 -75.3761 180° South 345 397 14,100 2,550 Climbing FAA TRACON SMA TRACON (SMA)
Sat 06:16:34 AM 39.3819 -75.3769 181° South 349 402 14,900 2,488 Climbing FAA TRACON SMA TRACON (SMA)
Sat 06:16:54 AM 39.3514 -75.3775 181° South 354 407 15,800 2,923 Climbing FAA TRACON SMA TRACON (SMA)
Sat 06:17:13 AM 39.3133 -75.3778 180° South 357 411 16,800 2,700 Climbing FAA TRACON SMA TRACON (SMA)
Sat 06:17:34 AM 39.2844 -75.3783 181° South 360 414 17,600 1,800 Climbing FAA TRACON SMA TRACON (SMA)
Sat 06:17:53 AM 39.2672 -75.3836 193° South 352 405 18,000 600 Climbing FAA TRACON SMA TRACON (SMA)
Sat 06:18:14 AM 39.2672 -75.3836 339° North 352 405 18,000 2,765 Level FAA TRACON SMA TRACON (SMA)
Sat 06:19:35 AM 39.1008 -75.4819 205° Southwest 347 399 22,700 2,723 Climbing Washington Center
Sat 06:20:35 AM 39.0111 -75.5328 204° Southwest 353 406 24,400 1,550 Climbing Washington Center
Sat 06:21:35 AM 38.9175 -75.5889 205° Southwest 364 419 25,800 1,500 Climbing Washington Center
Sat 06:22:35 AM 38.8217 -75.6475 205° Southwest 371 427 27,400 1,050 Climbing Washington Center
Sat 06:23:35 AM 38.7214 -75.7061 205° Southwest 383 441 27,900 300 Climbing Washington Center
Sat 06:24:35 AM 38.6214 -75.7617 203° Southwest 389 448 28,000 50 Climbing Washington Center
Sat 06:25:35 AM 38.5253 -75.8172 204° Southwest 389 448 28,000  Level Washington Center
Sat 06:26:35 AM 38.4336 -75.8647 202° Southwest 389 448 28,000 550 Level Washington Center
Sat 06:27:35 AM 38.3353 -75.9225 205° Southwest 394 453 29,100 1,000 Climbing Washington Center
Sat 06:28:35 AM 38.2308 -75.9828 204° Southwest 399 459 30,000 450 Climbing Washington Center
Sat 06:29:35 AM 38.1306 -76.0406 204° Southwest 399 459 30,000  Level Washington Center
Sat 06:30:35 AM 38.0303 -76.0981 204° Southwest 399 459 30,000  Level Washington Center
Sat 06:31:35 AM 37.9319 -76.1553 205° Southwest 399 459 30,000  Level Washington Center
Sat 06:32:35 AM 37.8317 -76.2097 203° Southwest 399 459 30,000  Level Washington Center
Sat 06:33:35 AM 37.7311 -76.2692 205° Southwest 399 459 30,000  Level Washington Center
Sat 06:34:35 AM 37.6308 -76.3233 203° Southwest 399 459 30,000  Level Washington Center
Sat 06:35:35 AM 37.5303 -76.3800 204° Southwest 399 459 30,000  Level Washington Center
Sat 06:36:35 AM 37.4297 -76.4367 204° Southwest 399 459 30,000  Level Washington Center
Sat 06:37:35 AM 37.3292 -76.4931 204° Southwest 394 453 30,000  Level Washington Center
Sat 06:38:35 AM 37.2286 -76.5492 204° Southwest 394 453 30,000  Level Washington Center
Sat 06:39:35 AM 37.1239 -76.6053 203° Southwest 394 453 30,000  Level Washington Center
Sat 06:40:35 AM 37.0233 -76.6636 205° Southwest 394 453 30,000  Level Washington Center
Sat 06:41:35 AM 36.9228 -76.7219 205° Southwest 399 459 30,000  Level Washington Center
Sat 06:42:35 AM 36.8200 -76.7775 203° Southwest 399 459 30,000  Level Washington Center
Sat 06:43:35 AM 36.7192 -76.8331 204° Southwest 399 459 30,000  Level Washington Center
Sat 06:44:35 AM 36.6144 -76.8883 203° Southwest 399 459 30,000  Level Washington Center
Sat 06:45:35 AM 36.5136 -76.9486 206° Southwest 399 459 30,000  Level Washington Center
Sat 06:46:35 AM 36.4000 -77.0086 203° Southwest 399 459 30,000 -50 Level Washington Center
Sat 06:47:35 AM 36.2972 -77.0636 203° Southwest 404 465 29,900  Descending Washington Center
Sat 06:48:35 AM 36.1922 -77.1233 205° Southwest 404 465 30,000 50 Climbing Washington Center
Sat 06:49:35 AM 36.1019 -77.1706 203° Southwest 404 465 30,000  Level Washington Center
Sat 06:50:35 AM 35.9967 -77.2275 204° Southwest 404 465 30,000  Level Washington Center
Sat 06:51:35 AM 35.8917 -77.2817 203° Southwest 404 465 30,000  Level Washington Center
Sat 06:52:35 AM 35.7867 -77.3383 204° Southwest 409 471 30,000  Level Washington Center
Sat 06:53:35 AM 35.6814 -77.3972 204° Southwest 414 476 30,000  Level Washington Center
Sat 06:54:35 AM 35.5742 -77.4536 203° Southwest 419 482 30,000  Level Washington Center
Sat 06:55:35 AM 35.4669 -77.5072 202° Southwest 419 482 30,000  Level Washington Center
Sat 06:56:35 AM 35.3658 -77.5661 205° Southwest 419 482 30,000  Level Washington Center
Sat 06:57:35 AM 35.2786 -77.6503 218° Southwest 414 476 30,000  Level Washington Center
Sat 06:58:35 AM 35.1936 -77.7447 222° Southwest 409 471 30,000  Level Washington Center
Sat 06:59:35 AM 35.1108 -77.8289 220° Southwest 409 471 30,000  Level Washington Center
Sat 07:00:35 AM 35.0233 -77.9178 220° Southwest 404 465 30,000  Level Washington Center
Sat 07:01:35 AM 34.9361 -78.0064 220° Southwest 409 471 30,000  Level Washington Center
Sat 07:02:35 AM 34.8508 -78.0950 220° Southwest 409 471 30,000 -50 Level Washington Center
Sat 07:03:35 AM 34.7589 -78.1958 222° Southwest 409 471 29,900  Descending Washington Center
Sat 07:05:39 AM 34.5875 -78.3683 220° Southwest 419 482 30,000 33 Climbing Jacksonville Center
Sat 07:06:39 AM 34.5011 -78.4561 220° Southwest 419 482 30,000  Level Jacksonville Center
Sat 07:07:39 AM 34.4125 -78.5486 221° Southwest 419 482 30,000  Level Jacksonville Center
Sat 07:08:39 AM 34.3236 -78.6336 218° Southwest 414 476 30,000  Level Jacksonville Center
Sat 07:09:39 AM 34.2347 -78.7233 220° Southwest 414 476 30,000  Level Jacksonville Center
Sat 07:10:39 AM 34.1461 -78.8128 220° Southwest 419 482 30,000  Level Jacksonville Center
Sat 07:11:39 AM 34.0592 -78.8997 220° Southwest 414 476 30,000  Level Jacksonville Center
Sat 07:12:39 AM 33.9567 -78.9619 207° Southwest 414 476 30,000 -50 Level Jacksonville Center
Sat 07:13:39 AM 33.8456 -79.0119 200° South 416 479 29,900  Descending Jacksonville Center
Sat 07:14:39 AM 33.7344 -79.0642 201° Southwest 421 484 30,000 50 Climbing Jacksonville Center
Sat 07:15:39 AM 33.6275 -79.1161 202° Southwest 427 491 30,000  Level Jacksonville Center
Sat 07:16:39 AM 33.5225 -79.1656 201° Southwest 427 491 30,000 -50 Level Jacksonville Center
Sat 07:17:39 AM 33.4156 -79.2172 202° Southwest 422 486 29,900  Descending Jacksonville Center
Sat 07:18:39 AM 33.3064 -79.2689 202° Southwest 422 486 30,000 50 Climbing Jacksonville Center
Sat 07:19:39 AM 33.1953 -79.3206 201° Southwest 427 491 30,000  Level Jacksonville Center
Sat 07:20:39 AM 33.0903 -79.3744 203° Southwest 422 486 30,000  Level Jacksonville Center
Sat 07:21:39 AM 32.9811 -79.4283 202° Southwest 422 486 30,000  Level Jacksonville Center
Sat 07:22:39 AM 32.8719 -79.4794 201° Southwest 427 491 30,000  Level Jacksonville Center
Sat 07:23:39 AM 32.7628 -79.5306 201° Southwest 427 491 30,000 -50 Level Jacksonville Center
Sat 07:24:39 AM 32.6514 -79.5839 202° Southwest 427 491 29,900  Descending Jacksonville Center
Sat 07:25:39 AM 32.5422 -79.6347 201° Southwest 427 491 30,000 50 Climbing Jacksonville Center
Sat 07:26:39 AM 32.4328 -79.6881 202° Southwest 427 491 30,000  Level Jacksonville Center
Sat 07:27:39 AM 32.3214 -79.7411 202° Southwest 427 491 30,000  Level Jacksonville Center
Sat 07:28:39 AM 32.2100 -79.7914 201° Southwest 427 491 30,000  Level Jacksonville Center
Sat 07:29:39 AM 32.0917 -79.8175 191° South 427 491 30,000 -50 Level Jacksonville Center
Sat 07:30:39 AM 31.9711 -79.8436 190° South 439 505 29,900  Descending Jacksonville Center
Sat 07:31:39 AM 31.8528 -79.8719 191° South 439 505 30,000 50 Climbing Jacksonville Center
Sat 07:32:39 AM 31.7303 -79.8956 189° South 444 511 30,000  Level Jacksonville Center
Sat 07:33:39 AM 31.6119 -79.9189 190° South 444 511 30,000  Level Jacksonville Center
Sat 07:34:39 AM 31.4850 -79.9472 191° South 438 504 30,000  Level Jacksonville Center
Sat 07:35:39 AM 31.3647 -79.9778 192° South 438 504 30,000  Level Jacksonville Center
Sat 07:36:39 AM 31.2525 -80.0008 190° South 432 497 30,000  Level Jacksonville Center
Sat 07:37:39 AM 31.1256 -80.0192 187° South 438 504 30,000  Level Jacksonville Center
Sat 07:38:39 AM 31.0114 -80.0469 192° South 438 504 30,000  Level Jacksonville Center
Sat 07:39:39 AM 30.8844 -80.0703 189° South 443 510 30,000  Level Jacksonville Center
Sat 07:40:39 AM 30.7725 -80.0953 191° South 436 502 30,000 200 Level Jacksonville Center
Sat 07:41:39 AM 30.6561 -80.1203 190° South 436 502 30,400 1,000 Climbing Jacksonville Center
Sat 07:42:39 AM 30.5375 -80.1431 189° South 431 496 32,000 750 Climbing Jacksonville Center
Sat 07:43:39 AM 30.4272 -80.1656 190° South 424 488 31,900  Descending Jacksonville Center
Sat 07:44:39 AM 30.3131 -80.1906 191° South 417 480 32,000  Climbing Jacksonville Center
Sat 07:45:39 AM 30.2008 -80.2153 191° South 417 480 31,900  Descending Jacksonville Center
Sat 07:47:19 AM 30.0147 -80.2481 189° South 446 513 32,000 38 Climbing Miami Center
Sat 07:48:19 AM 29.9017 -80.2731 191° South 428 493 32,000 -50 Level Miami Center
Sat 07:49:19 AM 29.7883 -80.2981 191° South 422 486 31,900  Descending Miami Center
Sat 07:50:19 AM 29.6733 -80.3208 190° South 422 486 32,000  Climbing Miami Center
Sat 07:51:19 AM 29.5581 -80.3458 191° South 417 480 31,900 -50 Descending Miami Center
Sat 07:52:19 AM 29.4719 -80.3619 189° South 417 480 31,900 50 Level Miami Center
Sat 07:53:19 AM 29.3461 -80.3961 193° South 412 474 32,000 50 Climbing Miami Center
Sat 07:54:19 AM 29.2308 -80.4139 188° South 412 474 32,000  Level Miami Center
Sat 07:55:19 AM 29.1081 -80.4075 177° South 423 487 32,000  Level Miami Center
Sat 07:56:19 AM 28.9897 -80.3894 172° South 423 487 32,000  Level Miami Center
Sat 07:57:19 AM 28.8586 -80.3733 174° South 428 493 32,000  Level Miami Center
Sat 07:58:19 AM 28.7506 -80.3581 173° South 434 499 32,000  Level Miami Center
Sat 07:59:19 AM 28.6278 -80.3425 174° South 439 505 32,000  Level Miami Center
Sat 08:00:19 AM 28.4967 -80.3242 173° South 439 505 32,000  Level Miami Center
Sat 08:01:19 AM 28.3761 -80.3064 173° South 444 511 32,000  Level Miami Center
Sat 08:02:19 AM 28.2603 -80.2672 163° South 436 502 32,000  Level Miami Center
Sat 08:03:19 AM 28.1636 -80.2008 149° Southeast 436 502 32,000  Level Miami Center
Sat 08:04:19 AM 28.0444 -80.1197 149° Southeast 450 518 32,000  Level Miami Center
Sat 08:05:19 AM 27.9397 -80.0461 148° Southeast 455 524 32,000 -100 Level Miami Center
Sat 08:06:19 AM 27.8367 -79.9775 150° Southeast 455 524 31,800 -550 Descending Miami Center
Sat 08:07:19 AM 27.7339 -79.9114 150° Southeast 452 520 30,900 -1,250 Descending Miami Center
Sat 08:08:19 AM 27.6364 -79.8783 163° South 391 450 29,300 -1,850 Descending Miami Center
Sat 08:09:19 AM 27.5242 -79.8567 170° South 373 429 27,200 -1,850 Descending Miami Center
Sat 08:10:19 AM 27.4236 -79.8633 183° South 363 418 25,600 -1,550 Descending Miami Center
Sat 08:11:19 AM 27.3272 -79.8911 194° South 364 419 24,100 -800 Descending Miami Center
Sat 08:12:19 AM 27.2389 -79.9147 193° South 352 405 24,000 -50 Descending Miami Center
Sat 08:13:19 AM 27.1361 -79.9331 189° South 352 405 24,000 -450 Level Miami Center
Sat 08:14:19 AM 27.0356 -79.9489 188° South 367 422 23,100 -1,450 Descending Miami Center
Sat 08:15:19 AM 26.9308 -79.9672 189° South 374 430 21,100 -1,950 Descending Miami Center
Sat 08:16:19 AM 26.8261 -79.9853 189° South 379 436 19,200 -1,900 Descending Miami Center
Sat 08:17:19 AM 26.7253 -80.0058 190° South 374 430 17,300 -1,944 Descending Miami Center
Sat 08:18:07 AM 26.6497 -80.0203 190° South 336 387 15,700 -1,929 Descending Miami Center
Sat 08:18:43 AM 26.5953 -80.0303 189° South 335 386 14,600 -2,000 Descending Miami Center
Sat 08:19:19 AM 26.5431 -80.0358 185° South 337 388 13,300 -1,574 Descending Miami Center
Sat 08:19:44 AM 26.5031 -80.0464 193° South 329 379 13,000 -300 Descending Miami Center
Sat 08:20:19 AM 26.4611 -80.0475 181° South 331 381 13,000  Level Miami Center
Sat 08:20:51 AM 26.4050 -80.0439 177° South 330 380 13,000  Level Miami Center
Sat 08:21:19 AM 26.3614 -80.0333 168° South 331 381 13,000  Level Miami Center
Sat 08:21:52 AM 26.3072 -80.0250 172° South 335 386 13,000 -500 Level Miami Center
Sat 08:22:19 AM 26.2678 -80.0169 170° South 331 381 12,500 -1,469 Descending Miami Center
Sat 08:22:41 AM 26.2342 -80.0206 186° South 331 381 11,800 -1,100 Descending Miami Center
Sat 08:23:19 AM 26.1922 -80.0264 187° South 326 375 11,400 -885 Descending Miami Center
Sat 08:23:42 AM 26.1500 -80.0439 200° South 293 337 10,900 -1,100 Descending Miami Center
Sat 08:24:19 AM 26.1122 -80.0522 191° South 313 360 10,300 -1,254 Descending Miami Center
Sat 08:24:49 AM 26.0639 -80.0669 195° South 282 325 9,500 -1,300 Descending Miami Center
Sat 08:25:19 AM 26.0367 -80.0733 192° South 292 336 9,000 -885 Descending Miami Center
Sat 08:25:50 AM 25.9903 -80.0906 198° South 254 292 8,600 -700 Descending Miami Center
Sat 08:26:19 AM 25.9694 -80.0922 184° South 275 316 8,300 -600 Descending Miami Center
Sat 08:26:50 AM 25.9433 -80.1308 233° Southwest 221 254 8,000 -300 Descending Miami Center
Sat 08:27:19 AM 25.9325 -80.1489 236° Southwest 235 270 8,000  Level Miami Center
Sat 08:27:52 AM 25.9108 -80.1922 241° Southwest 229 264 8,000 -383 Level Miami Center
Sat 08:28:53 AM 25.8989 -80.2589 259° West 228 262 7,400 -1,323 Descending Miami Center
Sat 08:29:59 AM 25.9178 -80.3356 285° West 232 267 5,200 -1,983 Descending Miami Center
Sat 08:30:54 AM 25.9372 -80.3961 290° West 227 261 3,400 -1,964 Descending Miami Center

Login

Don't have an account? Register now (free) for customized features, flight alerts, and more!